Time;durP1;ratioP1;P1;durP2;ratioP2;P2;SDS_P1;SDS_P2;PMS_P1;PMS_P2;Temp;Humidity;BMP_temperature;BMP_pressure;BME280_temperature;BME280_humidity;BME280_pressure;Samples;Min_cycle;Max_cycle;Signal;HPM_P1;HPM_P2
2021/05/15 00:04:55;;;;;;;5.27;4.73;;;;;;;11.67;68.50;98624.56;529680;1098;116551;-66
2021/05/15 00:15:00;;;;;;;5.08;4.20;;;;;;;11.61;68.75;98631.17;529030;1098;117172;-66
2021/05/15 00:25:04;;;;;;;4.73;3.60;;;;;;;11.60;69.09;98626.02;529027;1098;116138;-65
2021/05/15 00:35:11;;;;;;;4.45;3.40;;;;;;;11.52;69.05;98634.56;528980;1098;115753;-64
2021/05/15 00:45:16;;;;;;;3.67;2.63;;;;;;;11.36;68.89;98635.00;529647;1098;116818;-65
2021/05/15 00:55:21;;;;;;;3.23;2.93;;;;;;;10.91;69.05;98649.16;528988;1098;116334;-66
2021/05/15 01:05:25;;;;;;;4.70;3.38;;;;;;;10.42;69.47;98652.11;528728;1098;116269;-65
2021/05/15 01:15:30;;;;;;;3.50;3.20;;;;;;;10.05;69.77;98660.20;529694;1098;116338;-65
2021/05/15 01:25:34;;;;;;;3.78;2.83;;;;;;;9.77;70.49;98659.66;528895;1098;116503;-64
2021/05/15 01:35:37;;;;;;;2.57;1.97;;;;;;;9.55;71.14;98655.21;528978;1098;116714;-65
2021/05/15 01:45:41;;;;;;;5.67;3.23;;;;;;;9.30;71.40;98655.23;529727;1098;116563;-65
2021/05/15 01:55:45;;;;;;;3.43;3.13;;;;;;;9.10;71.46;98656.71;529064;1098;116438;-65
2021/05/15 02:05:49;;;;;;;4.47;2.70;;;;;;;8.86;71.96;98649.69;529044;1098;116761;-65
2021/05/15 02:15:53;;;;;;;5.33;2.77;;;;;;;8.66;72.30;98656.36;529791;1097;116186;-65
2021/05/15 02:25:57;;;;;;;4.80;2.80;;;;;;;8.48;72.67;98656.67;529748;1098;115845;-65
2021/05/15 02:36:01;;;;;;;3.87;3.00;;;;;;;8.35;73.16;98654.07;529008;1098;116491;-65
2021/05/15 02:46:04;;;;;;;4.60;3.63;;;;;;;8.22;73.43;98653.26;528987;1098;116872;-65
2021/05/15 02:56:08;;;;;;;5.03;4.20;;;;;;;8.10;73.55;98665.42;529027;1098;116473;-64
2021/05/15 03:06:12;;;;;;;6.30;3.73;;;;;;;8.09;73.53;98680.25;529745;1098;116355;-65
2021/05/15 03:16:15;;;;;;;3.03;2.73;;;;;;;8.18;73.81;98680.58;528982;1098;115575;-65
2021/05/15 03:26:19;;;;;;;4.08;2.90;;;;;;;8.19;73.86;98698.76;529000;1098;116010;-64
2021/05/15 03:36:24;;;;;;;3.23;2.93;;;;;;;8.37;74.01;98701.06;529647;1098;115639;-65
2021/05/15 03:46:28;;;;;;;6.13;2.90;;;;;;;8.75;73.47;98697.56;528895;1098;116442;-64
2021/05/15 03:56:31;;;;;;;4.40;3.20;;;;;;;9.24;73.05;98701.06;528996;1098;117369;-64
2021/05/15 04:06:35;;;;;;;3.23;2.93;;;;;;;12.78;72.70;98700.30;529654;1098;115842;-64
2021/05/15 04:16:49;;;;;;;2.70;2.40;;;;;;;19.94;62.73;98700.34;528892;1098;116534;-65
2021/05/15 04:26:54;;;;;;;2.27;1.80;;;;;;;24.77;52.53;98696.43;528946;1098;116703;-65
2021/05/15 04:36:59;;;;;;;2.07;1.83;;;;;;;19.95;49.13;98711.84;528887;1098;116745;-64
2021/05/15 04:47:03;;;;;;;1.43;1.33;;;;;;;24.83;48.48;98706.30;529673;1098;116004;-64
2021/05/15 04:57:07;;;;;;;1.87;1.43;;;;;;;30.13;40.18;98713.19;529649;1098;116640;-65
2021/05/15 05:07:11;;;;;;;2.00;1.57;;;;;;;33.61;34.83;98705.70;528837;1098;116855;-65
2021/05/15 05:17:15;;;;;;;1.30;1.20;;;;;;;37.49;30.45;98711.10;528910;1098;117944;-65
2021/05/15 05:27:20;;;;;;;1.60;1.50;;;;;;;38.76;25.88;98732.06;529665;1098;116181;-65
2021/05/15 05:37:24;;;;;;;1.15;1.05;;;;;;;39.68;23.76;98735.75;528930;1098;116844;-64
2021/05/15 05:47:28;;;;;;;2.65;1.75;;;;;;;40.58;21.70;98733.91;528872;1098;116035;-66
2021/05/15 05:57:31;;;;;;;1.97;1.47;;;;;;;41.37;19.77;98744.18;529654;1098;116440;-65
2021/05/15 06:07:35;;;;;;;3.87;2.00;;;;;;;37.38;18.58;98746.84;528883;1098;115975;-65
2021/05/15 06:17:39;;;;;;;1.57;1.47;;;;;;;40.40;18.74;98749.53;528922;1098;116972;-63
2021/05/15 06:27:43;;;;;;;3.83;2.10;;;;;;;39.61;17.83;98758.96;529676;1098;116837;-64
2021/05/15 06:37:48;;;;;;;1.57;1.47;;;;;;;37.24;17.65;98765.94;528806;1098;116201;-63
2021/05/15 06:47:53;;;;;;;2.20;2.00;;;;;;;37.58;17.81;98791.48;528877;1098;117046;-61
2021/05/15 06:57:56;;;;;;;3.00;1.70;;;;;;;35.47;18.74;98782.50;528932;1098;115849;-62
2021/05/15 07:08:00;;;;;;;2.60;2.40;;;;;;;39.08;17.81;98785.99;529444;1098;117633;-65
2021/05/15 07:18:04;;;;;;;2.77;2.57;;;;;;;42.80;15.74;98794.66;528862;1098;116666;-64
2021/05/15 07:28:08;;;;;;;2.03;1.77;;;;;;;41.11;15.43;98791.77;528887;1098;117651;-65
2021/05/15 07:38:13;;;;;;;2.37;2.17;;;;;;;43.78;13.71;98792.78;510951;1097;10115664;-64
2021/05/15 07:48:17;;;;;;;4.17;2.30;;;;;;;43.30;14.29;98792.23;529539;1098;116738;-64
2021/05/15 07:58:21;;;;;;;3.00;2.37;;;;;;;41.21;13.70;98798.92;528796;1098;118309;-64
2021/05/15 08:08:25;;;;;;;14.43;3.18;;;;;;;33.09;17.74;98791.83;528725;1098;117152;-64
2021/05/15 08:18:29;;;;;;;2.97;2.53;;;;;;;28.39;21.22;98794.27;529569;1098;116629;-65
2021/05/15 08:28:33;;;;;;;5.37;2.83;;;;;;;24.53;24.77;98795.36;518741;1098;116595;-65
2021/05/15 08:38:37;;;;;;;2.80;2.60;;;;;;;24.32;26.29;98794.55;528893;1097;116568;-64
2021/05/15 08:48:42;;;;;;;2.70;1.90;;;;;;;23.77;27.05;98800.06;529628;1098;117296;-65
2021/05/15 08:58:46;;;;;;;3.33;2.47;;;;;;;24.10;27.61;98798.48;522846;1094;115942;-64
2021/05/15 09:08:50;;;;;;;4.60;3.23;;;;;;;22.44;29.32;98799.25;522957;1098;116413;-65
2021/05/15 09:19:04;;;;;;;8.37;2.40;;;;;;;22.21;29.78;98801.16;524278;1093;116774;-60
2021/05/15 09:29:09;;;;;;;8.93;3.38;;;;;;;22.18;30.00;98803.39;527208;1098;116087;-63
2021/05/15 09:39:20;;;;;;;3.70;1.90;;;;;;;22.44;29.92;98797.42;521508;1098;116676;-64
2021/05/15 09:49:27;;;;;;;2.08;1.70;;;;;;;21.95;30.85;98801.75;525145;1098;116139;-64
2021/05/15 09:59:33;;;;;;;4.70;1.90;;;;;;;22.00;30.59;98801.19;528912;1098;116368;-62
2021/05/15 10:09:38;;;;;;;2.07;1.43;;;;;;;21.42;31.47;98816.22;529645;1098;116762;-63
2021/05/15 10:19:43;;;;;;;3.33;2.90;;;;;;;21.06;32.27;98823.17;528923;1098;115978;-65
2021/05/15 10:29:51;;;;;;;8.67;2.70;;;;;;;21.06;32.10;98819.66;528982;1098;115596;-65
2021/05/15 10:39:56;;;;;;;5.28;2.43;;;;;;;21.27;31.42;98800.22;528947;1098;117023;-60
2021/05/15 10:50:18;;;;;;;2.97;2.33;;;;;;;21.17;32.05;98810.37;529803;1097;117372;-64
2021/05/15 11:00:25;;;;;;;3.40;2.33;;;;;;;20.43;32.65;98804.80;529702;1098;116500;-64
2021/05/15 11:10:36;;;;;;;;;;;;;;;20.56;32.39;98798.85;510892;1098;10113776;-67
2021/05/15 11:20:45;;;;;;;4.30;2.00;;;;;;;21.09;32.80;98787.28;529485;1098;102939;-63
2021/05/15 11:30:50;;;;;;;2.38;1.78;;;;;;;21.11;32.07;98790.59;518542;1098;10001771;-64
2021/05/15 11:40:56;;;;;;;4.65;2.28;;;;;;;20.93;32.43;98773.11;527398;1098;117134;-64
2021/05/15 11:51:03;;;;;;;2.87;1.97;;;;;;;20.98;32.80;98765.39;528924;1098;116939;-65
2021/05/15 12:01:15;;;;;;;24.17;4.00;;;;;;;21.30;32.37;98769.63;528833;1098;117360;-64
2021/05/15 12:11:24;;;;;;;9.78;2.48;;;;;;;21.40;31.72;98754.14;528950;1097;116593;-66
2021/05/15 12:21:30;;;;;;;2.97;1.57;;;;;;;21.34;31.28;98747.71;520297;1098;10001029;-64
2021/05/15 12:31:35;;;;;;;3.47;1.33;;;;;;;20.97;31.33;98723.72;529001;1098;116792;-65
2021/05/15 12:41:44;;;;;;;10.13;2.27;;;;;;;21.44;31.28;98730.56;528876;1098;116263;-65
2021/05/15 12:51:50;;;;;;;2.80;1.20;;;;;;;21.52;30.47;98711.75;529738;1098;116544;-65
2021/05/15 13:02:05;;;;;;;2.37;1.23;;;;;;;21.83;30.20;98711.42;529521;1098;116620;-64
2021/05/15 13:12:10;;;;;;;2.87;0.93;;;;;;;22.00;29.95;98689.77;529721;1098;117408;-64
2021/05/15 13:22:15;;;;;;;11.73;2.20;;;;;;;21.85;29.58;98679.17;528728;1098;116831;-65
2021/05/15 13:32:22;;;;;;;2.60;0.85;;;;;;;21.69;29.46;98670.41;510948;1098;10113088;-65
2021/05/15 13:42:27;;;;;;;5.10;1.43;;;;;;;21.91;29.48;98688.27;529526;1098;118123;-65
2021/05/15 13:52:32;;;;;;;6.57;1.20;;;;;;;22.05;28.98;98686.52;528865;1097;116870;-64
2021/05/15 14:02:39;;;;;;;1.33;0.80;;;;;;;22.03;28.99;98665.31;528815;1098;117128;-66
2021/05/15 14:12:44;;;;;;;1.03;1.03;;;;;;;21.69;29.00;98664.26;529661;1098;117083;-64
2021/05/15 14:22:49;;;;;;;4.68;1.55;;;;;;;22.03;29.10;98661.81;528771;1098;116162;-63
2021/05/15 14:32:54;;;;;;;3.60;2.00;;;;;;;22.25;28.62;98650.02;524158;1098;115968;-61
2021/05/15 14:42:59;;;;;;;1.47;1.37;;;;;;;22.02;28.29;98641.45;528565;1098;116054;-63
2021/05/15 14:53:05;;;;;;;2.03;0.90;;;;;;;21.71;28.83;98637.36;529687;1098;116374;-62
2021/05/15 15:03:10;;;;;;;1.60;1.07;;;;;;;21.56;29.05;98628.38;529566;1098;116262;-63
2021/05/15 15:13:14;;;;;;;4.73;1.65;;;;;;;21.51;29.43;98614.77;528881;1098;117451;-63
2021/05/15 15:23:20;;;;;;;1.70;1.15;;;;;;;21.46;29.34;98609.20;528757;1098;115864;-61
2021/05/15 15:33:26;;;;;;;1.37;1.30;;;;;;;21.25;29.51;98602.86;529591;1098;117946;-61
2021/05/15 15:43:31;;;;;;;1.30;1.07;;;;;;;20.95;29.30;98600.34;528951;1098;117580;-63
2021/05/15 15:53:36;;;;;;;3.93;1.40;;;;;;;20.88;29.55;98587.93;528928;1098;117667;-61
2021/05/15 16:03:41;;;;;;;1.03;0.93;;;;;;;20.91;29.57;98583.05;529528;1098;116201;-62
2021/05/15 16:13:46;;;;;;;1.47;1.37;;;;;;;20.92;29.85;98571.36;528962;1098;116243;-61
2021/05/15 16:23:51;;;;;;;0.80;0.80;;;;;;;20.78;30.02;98565.05;528857;1098;115956;-61
2021/05/15 16:33:56;;;;;;;4.83;2.07;;;;;;;20.71;29.50;98559.63;528654;1098;116652;-60
2021/05/15 16:44:01;;;;;;;4.57;1.10;;;;;;;20.68;29.66;98553.87;529702;1098;116695;-61
2021/05/15 16:54:06;;;;;;;1.00;0.90;;;;;;;20.68;29.30;98544.02;529584;1098;115760;-62
2021/05/15 17:04:11;;;;;;;3.67;1.30;;;;;;;20.50;29.27;98541.77;528812;1098;116204;-63
2021/05/15 17:14:17;;;;;;;2.00;0.97;;;;;;;20.06;29.39;98530.21;528959;1098;115934;-63
2021/05/15 17:24:22;;;;;;;5.90;1.57;;;;;;;19.64;30.63;98534.33;529584;1098;116396;-61
2021/05/15 17:34:31;;;;;;;12.87;2.30;;;;;;;19.24;31.63;98534.56;528955;1098;116016;-63
2021/05/15 17:44:37;;;;;;;5.93;2.38;;;;;;;18.85;32.24;98523.89;511015;1098;10001523;-61
2021/05/15 17:54:42;;;;;;;46.97;6.00;;;;;;;18.68;33.87;98519.68;529459;1098;116780;-60
2021/05/15 18:04:50;;;;;;;4.00;3.30;;;;;;;18.29;33.20;98527.57;528804;1098;117386;-62
2021/05/15 18:14:55;;;;;;;22.48;5.28;;;;;;;17.89;34.18;98539.99;528795;1098;116980;-63
2021/05/15 18:25:01;;;;;;;11.28;8.20;;;;;;;17.49;35.16;98537.31;528813;1098;116357;-65
2021/05/15 18:35:07;;;;;;;9.13;7.37;;;;;;;17.07;36.17;98534.70;529410;1098;116707;-63
2021/05/15 18:45:13;;;;;;;3.53;2.93;;;;;;;16.75;37.10;98541.61;529354;1098;176404;-62
2021/05/15 18:55:18;;;;;;;6.40;3.23;;;;;;;16.53;37.85;98541.24;528478;1098;117006;-61
2021/05/15 19:05:24;;;;;;;7.50;5.13;;;;;;;16.33;38.95;98542.52;528320;1098;117323;-61
2021/05/15 19:15:32;;;;;;;7.40;4.13;;;;;;;16.21;39.28;98539.34;529190;1098;116297;-62
2021/05/15 19:25:38;;;;;;;5.95;3.65;;;;;;;16.13;39.51;98542.80;528860;1098;115656;-62
2021/05/15 19:35:43;;;;;;;9.43;4.27;;;;;;;16.01;41.61;98549.38;528831;1098;117134;-61
2021/05/15 19:45:49;;;;;;;10.30;3.67;;;;;;;15.94;42.11;98557.94;529558;1098;116733;-61
2021/05/15 19:55:54;;;;;;;5.43;3.70;;;;;;;15.82;43.00;98564.47;528810;1098;117546;-62
2021/05/15 20:05:59;;;;;;;8.27;3.43;;;;;;;15.73;44.10;98583.93;528945;1098;167706;-60
2021/05/15 20:16:04;;;;;;;6.77;4.20;;;;;;;15.42;46.61;98646.06;528851;1098;116007;-62
2021/05/15 20:26:09;;;;;;;5.43;3.95;;;;;;;14.96;50.44;98654.91;528920;1098;116776;-61
2021/05/15 20:36:15;;;;;;;7.87;4.93;;;;;;;14.45;53.39;98646.55;529692;1098;116095;-62
2021/05/15 20:46:21;;;;;;;5.23;4.68;;;;;;;14.04;56.18;98640.76;528847;1098;116375;-61
2021/05/15 20:56:26;;;;;;;5.67;5.00;;;;;;;13.69;57.60;98643.91;528876;1098;115742;-62
2021/05/15 21:06:31;;;;;;;6.03;4.47;;;;;;;13.61;59.03;98632.38;529707;1098;116534;-62
2021/05/15 21:16:39;;;;;;;5.83;4.43;;;;;;;13.52;60.28;98605.89;521460;1098;117350;-61
2021/05/15 21:26:44;;;;;;;4.27;3.83;;;;;;;13.05;61.30;98585.50;517966;1098;115899;-61
2021/05/15 21:36:49;;;;;;;5.30;4.80;;;;;;;12.93;62.27;98581.34;515922;1098;116927;-58
2021/05/15 21:46:55;;;;;;;6.15;5.48;;;;;;;12.84;62.93;98573.29;512823;1098;115879;-60
2021/05/15 21:57:00;;;;;;;4.50;4.10;;;;;;;12.71;63.62;98578.84;516755;1098;117021;-60
2021/05/15 22:07:06;;;;;;;4.57;4.03;;;;;;;12.57;64.31;98566.90;518321;1098;116471;-65
2021/05/15 22:17:11;;;;;;;4.50;4.07;;;;;;;12.47;64.82;98574.80;516399;1098;117023;-61
2021/05/15 22:27:16;;;;;;;4.17;3.53;;;;;;;12.27;65.54;98571.26;513778;1098;117059;-61
2021/05/15 22:37:21;;;;;;;4.23;3.70;;;;;;;12.09;66.43;98564.98;512336;1098;116301;-63
2021/05/15 22:47:26;;;;;;;3.60;3.30;;;;;;;11.99;67.17;98564.91;517374;1093;117932;-61
2021/05/15 22:57:31;;;;;;;4.37;3.13;;;;;;;11.81;67.60;98543.66;517005;1098;116887;-61
2021/05/15 23:07:37;;;;;;;3.35;2.90;;;;;;;11.73;68.30;98529.39;519949;1098;116289;-61
2021/05/15 23:17:43;;;;;;;3.90;3.60;;;;;;;11.64;68.78;98517.84;513577;1093;116666;-61
2021/05/15 23:27:48;;;;;;;4.83;4.43;;;;;;;11.55;69.63;98516.02;522454;1093;116278;-62
2021/05/15 23:37:55;;;;;;;5.50;4.40;;;;;;;11.47;69.70;98492.17;516234;1098;117374;-62
2021/05/15 23:48:00;;;;;;;5.35;4.85;;;;;;;11.54;70.25;98484.59;517015;1098;117286;-61
2021/05/15 23:58:05;;;;;;;5.07;4.57;;;;;;;11.57;70.42;98468.55;516010;1098;116036;-62
